createdAt,value
2017-09-13T00:00:24.580Z,0
2017-09-13T00:01:25.237Z,0
2017-09-13T00:02:25.887Z,0
2017-09-13T00:03:26.791Z,0
2017-09-13T00:04:27.444Z,0
2017-09-13T00:05:28.135Z,0
2017-09-13T00:06:28.788Z,0
2017-09-13T00:07:29.442Z,0
2017-09-13T00:08:30.346Z,0
2017-09-13T00:09:31.000Z,0
2017-09-13T00:10:31.658Z,0
2017-09-13T00:11:32.304Z,0
2017-09-13T00:12:32.959Z,0
2017-09-13T00:13:33.861Z,0
2017-09-13T00:14:34.514Z,0
2017-09-13T00:15:35.168Z,0
2017-09-13T00:16:35.821Z,0
2017-09-13T00:17:36.476Z,0
2017-09-13T00:18:37.437Z,0
2017-09-13T00:19:38.093Z,0
2017-09-13T00:20:38.745Z,0
2017-09-13T00:21:39.397Z,0
2017-09-13T00:22:40.052Z,0
2017-09-13T00:23:40.991Z,0
2017-09-13T00:24:41.643Z,0
2017-09-13T00:25:42.298Z,0
2017-09-13T00:26:42.952Z,0
2017-09-13T00:27:43.604Z,0
2017-09-13T00:28:44.509Z,0
2017-09-13T00:29:45.161Z,0
2017-09-13T00:30:45.851Z,0
2017-09-13T00:31:46.503Z,0
2017-09-13T00:32:47.157Z,0
2017-09-13T00:33:48.061Z,0
2017-09-13T00:34:48.713Z,0
2017-09-13T00:35:49.366Z,0
2017-09-13T00:36:50.018Z,0
2017-09-13T00:37:50.671Z,0
2017-09-13T00:38:51.576Z,0
2017-09-13T00:39:52.230Z,0
2017-09-13T00:40:52.882Z,0
2017-09-13T00:41:53.537Z,0
2017-09-13T00:42:54.189Z,0
2017-09-13T00:43:55.093Z,0
2017-09-13T00:44:55.748Z,0
2017-09-13T00:45:56.401Z,0
2017-09-13T00:46:57.056Z,0
2017-09-13T00:47:57.709Z,0
2017-09-13T00:48:58.663Z,0
2017-09-13T00:49:59.319Z,0
2017-09-13T00:50:59.968Z,0
2017-09-13T00:52:00.622Z,0
2017-09-13T00:53:01.275Z,0
2017-09-13T00:54:02.178Z,0
2017-09-13T00:55:02.833Z,0
2017-09-13T00:56:03.485Z,0
2017-09-13T00:57:04.140Z,0
2017-09-13T00:58:04.794Z,0
2017-09-13T00:59:05.749Z,0
2017-09-13T01:00:06.402Z,0
2017-09-13T01:01:07.055Z,0
2017-09-13T01:02:07.709Z,0
2017-09-13T01:03:08.361Z,0
2017-09-13T01:04:09.301Z,0
2017-09-13T01:05:09.989Z,0
2017-09-13T01:06:10.642Z,0
2017-09-13T01:07:11.297Z,0
2017-09-13T01:08:11.952Z,0
2017-09-13T01:09:12.854Z,0
2017-09-13T01:10:13.505Z,0
2017-09-13T01:11:14.158Z,0
2017-09-13T01:12:14.810Z,0
2017-09-13T01:13:15.462Z,0
2017-09-13T01:14:16.367Z,0
2017-09-13T01:15:17.020Z,0
2017-09-13T01:16:17.672Z,0
2017-09-13T01:17:18.327Z,0
2017-09-13T01:18:18.978Z,0
2017-09-13T01:19:19.882Z,0
2017-09-13T01:20:20.536Z,0
2017-09-13T01:21:21.188Z,0
2017-09-13T01:22:21.842Z,0
2017-09-13T01:23:22.496Z,0
2017-09-13T01:24:23.399Z,0
2017-09-13T01:25:24.052Z,0
2017-09-13T01:26:24.707Z,0
2017-09-13T01:27:25.363Z,0
2017-09-13T01:28:26.012Z,0
2017-09-13T01:29:26.967Z,0
2017-09-13T01:30:27.654Z,0
2017-09-13T01:31:28.307Z,0
2017-09-13T01:32:28.961Z,0
2017-09-13T01:33:29.616Z,0
2017-09-13T01:34:30.569Z,0
2017-09-13T01:35:31.225Z,0
2017-09-13T01:36:31.881Z,0
2017-09-13T01:37:32.533Z,0
2017-09-13T01:38:33.184Z,0
2017-09-13T01:39:34.089Z,0
2017-09-13T01:40:34.741Z,0
2017-09-13T01:41:35.396Z,0
2017-09-13T01:42:36.052Z,0
2017-09-13T01:43:36.703Z,0
2017-09-13T01:44:37.606Z,0
2017-09-13T01:45:38.258Z,0
2017-09-13T01:46:38.915Z,0
2017-09-13T01:47:39.566Z,0
2017-09-13T01:48:40.246Z,0
2017-09-13T01:49:41.177Z,0
2017-09-13T01:50:41.828Z,0
2017-09-13T01:51:42.481Z,0
2017-09-13T01:52:43.133Z,0
2017-09-13T01:53:43.787Z,0
2017-09-13T01:54:44.740Z,0
2017-09-13T01:55:45.395Z,0
2017-09-13T01:56:46.047Z,0
2017-09-13T01:57:46.700Z,0
2017-09-13T01:58:47.352Z,0
2017-09-13T01:59:48.304Z,0
2017-09-13T02:00:48.964Z,0
2017-09-13T02:01:49.647Z,0
2017-09-13T02:02:50.298Z,0
2017-09-13T02:03:50.953Z,0
2017-09-13T02:04:51.857Z,0
2017-09-13T02:05:52.509Z,0
2017-09-13T02:06:53.164Z,0
2017-09-13T02:07:53.816Z,0
2017-09-13T02:08:54.468Z,0
2017-09-13T02:09:55.382Z,0
2017-09-13T02:10:56.026Z,0
2017-09-13T02:11:56.678Z,0
2017-09-13T02:12:57.333Z,0
2017-09-13T02:13:57.985Z,0
2017-09-13T02:14:58.889Z,0
2017-09-13T02:15:59.544Z,0
2017-09-13T02:17:00.199Z,0
2017-09-13T02:18:00.851Z,0
2017-09-13T02:19:01.512Z,0
2017-09-13T02:20:02.417Z,0
2017-09-13T02:21:03.070Z,0
2017-09-13T02:22:03.722Z,0
2017-09-13T02:23:04.377Z,0
2017-09-13T02:24:05.029Z,0
2017-09-13T02:25:05.987Z,0
2017-09-13T02:26:06.672Z,0
2017-09-13T02:27:07.324Z,0
2017-09-13T02:28:07.979Z,0
2017-09-13T02:29:08.633Z,0
2017-09-13T02:30:09.536Z,0
2017-09-13T02:31:10.228Z,0
2017-09-13T02:32:10.843Z,0
2017-09-13T02:33:11.498Z,0
2017-09-13T02:34:12.150Z,0
2017-09-13T02:35:13.095Z,0
2017-09-13T02:36:13.778Z,0
2017-09-13T02:37:14.430Z,0
2017-09-13T02:38:15.084Z,0
2017-09-13T02:39:15.737Z,0
2017-09-13T02:40:16.691Z,0
2017-09-13T02:41:17.351Z,0
2017-09-13T02:42:17.999Z,0
2017-09-13T02:43:18.652Z,0
2017-09-13T02:44:19.306Z,0
2017-09-13T02:45:20.212Z,0
2017-09-13T02:46:20.864Z,0
2017-09-13T02:47:21.516Z,0
2017-09-13T02:48:22.171Z,0
2017-09-13T02:49:22.823Z,0
2017-09-13T02:50:23.778Z,0
2017-09-13T02:51:24.432Z,0
2017-09-13T02:52:25.085Z,0
2017-09-13T02:53:25.738Z,0
2017-09-13T02:54:26.391Z,0
2017-09-13T02:55:27.297Z,0
2017-09-13T02:56:27.949Z,0
2017-09-13T02:57:28.601Z,0
2017-09-13T02:58:29.257Z,0
2017-09-13T02:59:29.914Z,0
2017-09-13T03:00:30.814Z,0
2017-09-13T03:01:31.470Z,0
2017-09-13T03:02:32.122Z,0
2017-09-13T03:03:32.777Z,0
2017-09-13T03:04:33.434Z,0
2017-09-13T03:05:34.389Z,0
2017-09-13T03:06:35.043Z,0
2017-09-13T03:07:35.697Z,0
2017-09-13T03:08:36.353Z,0
2017-09-13T03:09:37.005Z,0
2017-09-13T03:10:37.908Z,0
2017-09-13T03:11:38.563Z,0
2017-09-13T03:12:39.216Z,0
2017-09-13T03:13:39.869Z,0
2017-09-13T03:14:40.522Z,0
2017-09-13T03:15:41.477Z,0
2017-09-13T03:16:42.132Z,0
2017-09-13T03:17:42.786Z,0
2017-09-13T03:18:43.453Z,0
2017-09-13T03:19:44.107Z,0
2017-09-13T03:20:45.013Z,0
2017-09-13T03:21:45.666Z,0
2017-09-13T03:22:46.318Z,0
2017-09-13T03:23:46.979Z,0
2017-09-13T03:24:47.631Z,0
2017-09-13T03:25:48.587Z,0
2017-09-13T03:26:49.239Z,0
2017-09-13T03:27:49.893Z,0
2017-09-13T03:28:50.548Z,0
2017-09-13T03:29:51.204Z,0
2017-09-13T03:30:52.159Z,0
2017-09-13T03:31:52.812Z,0
2017-09-13T03:32:53.465Z,0
2017-09-13T03:33:54.118Z,0
2017-09-13T03:34:54.778Z,0
2017-09-13T03:35:55.682Z,0
2017-09-13T03:36:56.335Z,0
2017-09-13T03:37:56.989Z,0
2017-09-13T03:38:57.642Z,0
2017-09-13T03:39:58.296Z,0
2017-09-13T03:40:59.200Z,0
2017-09-13T03:41:59.852Z,0
2017-09-13T03:43:00.506Z,0
2017-09-13T03:44:01.160Z,0
2017-09-13T03:45:01.815Z,0
2017-09-13T03:46:02.768Z,0
2017-09-13T03:47:03.422Z,0
2017-09-13T03:48:04.078Z,0
2017-09-13T03:49:04.732Z,0
2017-09-13T03:50:05.386Z,0
2017-09-13T03:51:06.290Z,0
2017-09-13T03:52:06.943Z,0
2017-09-13T03:53:07.597Z,0
2017-09-13T03:54:08.288Z,0
2017-09-13T03:55:08.942Z,0
2017-09-13T03:56:09.852Z,0
2017-09-13T03:57:10.538Z,0
2017-09-13T03:58:11.222Z,0
2017-09-13T03:59:11.852Z,0
2017-09-13T04:00:12.507Z,0
2017-09-13T04:01:13.411Z,0
2017-09-13T04:02:14.101Z,0
2017-09-13T04:03:14.756Z,0
2017-09-13T04:04:15.410Z,0
2017-09-13T04:05:16.063Z,0
2017-09-13T04:06:16.967Z,0
2017-09-13T04:07:17.657Z,0
2017-09-13T04:08:18.311Z,0
2017-09-13T04:09:18.965Z,0
2017-09-13T04:10:19.618Z,0
2017-09-13T04:11:20.524Z,0
2017-09-13T04:12:21.179Z,0
2017-09-13T04:13:21.833Z,0
2017-09-13T04:14:22.487Z,0
2017-09-13T04:15:23.144Z,0
2017-09-13T04:16:24.096Z,0
2017-09-13T04:17:24.749Z,0
2017-09-13T04:18:25.404Z,0
2017-09-13T04:19:26.058Z,0
2017-09-13T04:20:26.711Z,4
2017-09-13T04:21:27.666Z,4
2017-09-13T04:22:28.318Z,0
2017-09-13T04:23:28.972Z,4
2017-09-13T04:24:29.626Z,4
2017-09-13T04:25:30.279Z,4
2017-09-13T04:26:31.187Z,4
2017-09-13T04:27:31.840Z,8
2017-09-13T04:28:32.495Z,8
2017-09-13T04:29:33.151Z,12
2017-09-13T04:30:33.804Z,12
2017-09-13T04:31:34.712Z,16
2017-09-13T04:32:35.367Z,16
2017-09-13T04:33:36.024Z,24
2017-09-13T04:34:36.679Z,28
2017-09-13T04:35:37.334Z,32
2017-09-13T04:36:38.238Z,36
2017-09-13T04:37:38.893Z,40
2017-09-13T04:38:39.547Z,48
2017-09-13T04:39:40.201Z,56
2017-09-13T04:40:40.859Z,60
2017-09-13T04:41:41.815Z,68
2017-09-13T04:42:42.470Z,80
2017-09-13T04:43:43.135Z,88
2017-09-13T04:44:43.792Z,92
2017-09-13T04:45:44.445Z,96
2017-09-13T04:46:45.350Z,96
2017-09-13T04:47:46.003Z,96
2017-09-13T04:48:46.660Z,96
2017-09-13T04:49:47.316Z,100
2017-09-13T04:50:47.970Z,112
2017-09-13T04:51:48.877Z,120
2017-09-13T04:52:49.535Z,132
2017-09-13T04:53:50.190Z,144
2017-09-13T04:54:50.847Z,152
2017-09-13T04:55:51.505Z,160
2017-09-13T04:56:52.412Z,180
2017-09-13T04:57:53.069Z,200
2017-09-13T04:58:53.724Z,220
2017-09-13T04:59:54.379Z,240
2017-09-13T05:00:55.036Z,272
2017-09-13T05:01:55.992Z,308
2017-09-13T05:02:56.647Z,336
2017-09-13T05:03:57.303Z,344
2017-09-13T05:04:57.960Z,328
2017-09-13T05:05:58.615Z,316
2017-09-13T05:06:59.526Z,328
2017-09-13T05:08:00.179Z,352
2017-09-13T05:09:00.835Z,384
2017-09-13T05:10:01.491Z,356
2017-09-13T05:11:02.148Z,336
2017-09-13T05:12:03.053Z,336
2017-09-13T05:13:03.710Z,352
2017-09-13T05:14:04.365Z,364
2017-09-13T05:15:05.022Z,372
2017-09-13T05:16:05.680Z,380
2017-09-13T05:17:06.584Z,372
2017-09-13T05:18:07.251Z,364
2017-09-13T05:19:07.944Z,344
2017-09-13T05:20:08.601Z,304
2017-09-13T05:21:09.257Z,272
2017-09-13T05:22:10.162Z,240
2017-09-13T05:23:10.824Z,208
2017-09-13T05:24:11.473Z,196
2017-09-13T05:25:12.129Z,196
2017-09-13T05:26:12.785Z,200
2017-09-13T05:27:13.746Z,220
2017-09-13T05:28:14.399Z,244
2017-09-13T05:29:15.054Z,288
2017-09-13T05:30:15.709Z,376
2017-09-13T05:31:16.366Z,460
2017-09-13T05:32:17.272Z,508
2017-09-13T05:33:17.928Z,620
2017-09-13T05:34:18.585Z,676
2017-09-13T05:35:19.241Z,712
2017-09-13T05:36:19.899Z,660
2017-09-13T05:37:20.893Z,700
2017-09-13T05:38:21.549Z,664
2017-09-13T05:39:22.206Z,664
2017-09-13T05:40:22.897Z,664
2017-09-13T05:41:23.552Z,668
2017-09-13T05:42:24.459Z,704
2017-09-13T05:43:25.114Z,756
2017-09-13T05:44:25.804Z,796
2017-09-13T05:45:26.462Z,932
2017-09-13T05:46:27.120Z,1296
2017-09-13T05:47:28.112Z,1812
2017-09-13T05:48:28.769Z,2228
2017-09-13T05:49:29.425Z,2728
2017-09-13T05:50:30.084Z,3636
2017-09-13T05:51:30.750Z,4812
2017-09-13T05:52:31.697Z,3872
2017-09-13T05:53:32.354Z,2280
2017-09-13T05:54:33.010Z,1456
2017-09-13T05:55:33.668Z,1184
2017-09-13T05:56:34.325Z,1212
2017-09-13T05:57:35.283Z,1360
2017-09-13T05:58:35.943Z,1540
2017-09-13T05:59:36.599Z,1700
2017-09-13T06:00:37.255Z,1736
2017-09-13T06:01:37.914Z,1848
2017-09-13T06:02:38.821Z,1948
2017-09-13T06:03:39.477Z,2000
2017-09-13T06:04:40.135Z,2468
2017-09-13T06:05:40.791Z,2832
2017-09-13T06:06:41.448Z,3012
2017-09-13T06:07:42.357Z,3332
2017-09-13T06:08:43.014Z,3448
2017-09-13T06:09:43.671Z,3544
2017-09-13T06:10:44.364Z,3232
2017-09-13T06:11:45.026Z,3156
2017-09-13T06:12:45.930Z,3236
2017-09-13T06:13:46.588Z,3488
2017-09-13T06:14:47.242Z,4236
2017-09-13T06:15:47.903Z,3792
2017-09-13T06:16:48.560Z,3292
2017-09-13T06:17:49.468Z,2388
2017-09-13T06:18:50.126Z,1816
2017-09-13T06:19:50.785Z,1620
2017-09-13T06:20:51.444Z,1404
2017-09-13T06:21:52.100Z,1396
2017-09-13T06:22:53.008Z,1536
2017-09-13T06:23:53.665Z,1752
2017-09-13T06:24:54.325Z,1828
2017-09-13T06:25:54.985Z,1944
2017-09-13T06:26:55.644Z,2156
2017-09-13T06:27:56.603Z,2388
2017-09-13T06:28:57.263Z,2580
2017-09-13T06:29:57.921Z,2652
2017-09-13T06:30:58.579Z,2976
2017-09-13T06:31:59.239Z,3388
2017-09-13T06:33:00.147Z,4468
2017-09-13T06:34:00.804Z,5212
2017-09-13T06:35:01.462Z,4580
2017-09-13T06:36:02.118Z,4420
2017-09-13T06:37:02.813Z,4376
2017-09-13T06:38:03.719Z,4724
2017-09-13T06:39:04.376Z,5720
2017-09-13T06:40:05.034Z,5464
2017-09-13T06:41:05.726Z,6292
2017-09-13T06:42:06.384Z,6280
2017-09-13T06:43:07.292Z,5812
2017-09-13T06:44:07.951Z,5068
2017-09-13T06:45:08.609Z,6120
2017-09-13T06:46:09.266Z,6940
2017-09-13T06:47:09.923Z,7152
2017-09-13T06:48:10.882Z,7744
2017-09-13T06:49:11.576Z,7448
2017-09-13T06:50:12.234Z,7536
2017-09-13T06:51:12.892Z,8096
2017-09-13T06:52:13.550Z,6608
2017-09-13T06:53:14.507Z,6492
2017-09-13T06:54:15.165Z,5872
2017-09-13T06:55:15.825Z,6008
2017-09-13T06:56:16.484Z,7400
2017-09-13T06:57:17.141Z,7048
2017-09-13T06:58:18.050Z,7024
2017-09-13T06:59:18.708Z,6576
2017-09-13T07:00:19.367Z,5912
2017-09-13T07:01:20.027Z,6096
2017-09-13T07:02:20.686Z,7408
2017-09-13T07:03:21.645Z,8976
2017-09-13T07:04:22.310Z,6648
2017-09-13T07:05:22.966Z,5120
2017-09-13T07:06:23.626Z,3512
2017-09-13T07:07:24.286Z,2880
2017-09-13T07:08:25.245Z,3100
2017-09-13T07:09:25.902Z,2808
2017-09-13T07:10:26.560Z,2500
2017-09-13T07:11:27.217Z,2612
2017-09-13T07:12:27.875Z,3116
2017-09-13T07:13:28.783Z,3456
2017-09-13T07:14:29.442Z,3568
2017-09-13T07:15:30.100Z,3620
2017-09-13T07:16:30.757Z,4676
2017-09-13T07:17:31.417Z,4156
2017-09-13T07:18:32.326Z,3500
2017-09-13T07:19:32.982Z,3428
2017-09-13T07:20:33.640Z,3208
2017-09-13T07:21:34.299Z,3252
2017-09-13T07:22:34.960Z,3456
2017-09-13T07:23:35.918Z,3904
2017-09-13T07:24:36.575Z,4140
2017-09-13T07:25:37.234Z,4356
2017-09-13T07:26:37.892Z,4572
2017-09-13T07:27:38.550Z,4380
2017-09-13T07:28:39.498Z,4684
2017-09-13T07:29:40.157Z,4836
2017-09-13T07:30:40.815Z,5308
2017-09-13T07:31:41.474Z,6420
2017-09-13T07:32:42.135Z,7152
2017-09-13T07:33:43.096Z,10088
2017-09-13T07:34:43.756Z,10092
2017-09-13T07:35:44.415Z,9152
2017-09-13T07:36:45.074Z,8008
2017-09-13T07:37:45.732Z,6588
2017-09-13T07:38:46.641Z,5520
2017-09-13T07:39:47.301Z,4972
2017-09-13T07:40:47.959Z,4964
2017-09-13T07:41:48.617Z,4816
2017-09-13T07:42:49.275Z,5420
2017-09-13T07:43:50.237Z,5948
2017-09-13T07:44:50.930Z,5004
2017-09-13T07:45:51.590Z,4964
2017-09-13T07:46:52.249Z,7104
2017-09-13T07:47:52.908Z,7980
2017-09-13T07:48:53.818Z,6592
2017-09-13T07:49:54.476Z,5168
2017-09-13T07:50:55.137Z,4620
2017-09-13T07:51:55.800Z,4824
2017-09-13T07:52:56.456Z,5212
2017-09-13T07:53:57.370Z,7104
2017-09-13T07:54:58.026Z,7004
2017-09-13T07:55:58.686Z,7076
2017-09-13T07:56:59.348Z,7168
2017-09-13T07:58:00.007Z,6520
2017-09-13T07:59:00.917Z,6604
2017-09-13T08:00:01.578Z,8320
2017-09-13T08:01:02.256Z,6988
2017-09-13T08:02:02.916Z,5880
2017-09-13T08:03:03.611Z,5232
2017-09-13T08:04:04.570Z,5472
2017-09-13T08:05:05.266Z,6320
2017-09-13T08:06:05.895Z,6472
2017-09-13T08:07:06.590Z,5520
2017-09-13T08:08:07.248Z,6136
2017-09-13T08:09:08.158Z,6868
2017-09-13T08:10:08.817Z,8884
2017-09-13T08:11:09.478Z,7160
2017-09-13T08:12:10.138Z,6424
2017-09-13T08:13:10.798Z,6424
2017-09-13T08:14:11.707Z,6688
2017-09-13T08:15:12.367Z,7332
2017-09-13T08:16:13.028Z,8176
2017-09-13T08:17:13.691Z,8684
2017-09-13T08:18:14.355Z,12548
2017-09-13T08:19:15.267Z,10188
2017-09-13T08:20:15.926Z,7448
2017-09-13T08:21:16.586Z,7748
2017-09-13T08:22:17.247Z,7056
2017-09-13T08:23:17.906Z,6312
2017-09-13T08:24:18.866Z,6188
2017-09-13T08:25:19.527Z,6664
2017-09-13T08:26:20.186Z,6676
2017-09-13T08:27:20.882Z,7344
2017-09-13T08:28:21.543Z,7876
2017-09-13T08:29:22.456Z,11752
2017-09-13T08:30:23.116Z,16980
2017-09-13T08:31:23.777Z,23392
2017-09-13T08:32:24.438Z,24960
2017-09-13T08:33:25.098Z,26368
2017-09-13T08:34:26.011Z,26432
2017-09-13T08:35:26.674Z,25440
2017-09-13T08:36:27.336Z,21760
2017-09-13T08:37:27.997Z,16880
2017-09-13T08:38:28.657Z,17440
2017-09-13T08:39:29.619Z,14780
2017-09-13T08:40:30.281Z,15200
2017-09-13T08:41:30.945Z,19712
2017-09-13T08:42:31.643Z,24320
2017-09-13T08:43:32.307Z,44288
2017-09-13T08:44:33.270Z,29760
2017-09-13T08:45:33.931Z,28864
2017-09-13T08:46:34.594Z,17888
2017-09-13T08:47:35.255Z,9540
2017-09-13T08:48:35.919Z,10800
2017-09-13T08:49:36.834Z,12428
2017-09-13T08:50:37.497Z,16164
2017-09-13T08:51:38.160Z,26272
2017-09-13T08:52:38.823Z,28160
2017-09-13T08:53:39.486Z,73568
2017-09-13T08:54:40.450Z,47968
2017-09-13T08:55:41.113Z,30688
2017-09-13T08:56:41.779Z,35040
2017-09-13T08:57:42.451Z,42208
2017-09-13T08:58:43.110Z,71008
2017-09-13T08:59:44.026Z,91392
2017-09-13T09:00:44.692Z,73824
2017-09-13T09:01:45.391Z,45056
2017-09-13T09:02:46.054Z,44384
2017-09-13T09:03:46.718Z,43552
2017-09-13T09:04:47.684Z,50304
2017-09-13T09:05:48.354Z,66080
2017-09-13T09:06:49.016Z,22592
2017-09-13T09:07:49.682Z,26112
2017-09-13T09:08:50.344Z,28640
2017-09-13T09:09:51.260Z,37024
2017-09-13T09:10:51.925Z,34784
2017-09-13T09:11:52.627Z,33024
2017-09-13T09:12:53.294Z,59552
2017-09-13T09:13:53.961Z,33952
2017-09-13T09:14:54.874Z,12136
2017-09-13T09:15:55.537Z,8964
2017-09-13T09:16:56.235Z,9024
2017-09-13T09:17:56.900Z,8200
2017-09-13T09:18:57.565Z,6688
2017-09-13T09:19:58.527Z,5652
2017-09-13T09:20:59.188Z,5568
2017-09-13T09:21:59.863Z,5536
2017-09-13T09:23:00.513Z,6888
2017-09-13T09:24:01.174Z,7056
2017-09-13T09:25:02.087Z,8932
2017-09-13T09:26:02.750Z,11300
2017-09-13T09:27:03.446Z,8612
2017-09-13T09:28:04.106Z,7964
2017-09-13T09:29:04.771Z,8044
2017-09-13T09:30:05.682Z,8780
2017-09-13T09:31:06.345Z,13008
2017-09-13T09:32:07.007Z,12344
2017-09-13T09:33:07.667Z,9972
2017-09-13T09:34:08.332Z,7440
2017-09-13T09:35:09.289Z,8352
2017-09-13T09:36:09.987Z,10396
2017-09-13T09:37:10.646Z,9332
2017-09-13T09:38:11.340Z,11668
2017-09-13T09:39:12.006Z,11608
2017-09-13T09:40:12.969Z,14136
2017-09-13T09:41:13.633Z,15448
2017-09-13T09:42:14.295Z,16924
2017-09-13T09:43:14.957Z,11704
2017-09-13T09:44:15.618Z,11332
2017-09-13T09:45:16.613Z,11472
2017-09-13T09:46:17.276Z,10828
2017-09-13T09:47:17.941Z,10196
2017-09-13T09:48:18.604Z,11880
2017-09-13T09:49:19.267Z,14244
2017-09-13T09:50:20.179Z,22176
2017-09-13T09:51:20.874Z,24192
2017-09-13T09:52:21.539Z,38784
2017-09-13T09:53:22.202Z,22560
2017-09-13T09:54:22.866Z,27040
2017-09-13T09:55:23.779Z,51424
2017-09-13T09:56:24.443Z,114656
2017-09-13T09:57:25.107Z,118464
2017-09-13T09:58:25.774Z,107136
2017-09-13T09:59:26.441Z,123200
2017-09-13T10:00:27.356Z,123872
2017-09-13T10:01:28.023Z,127584
2017-09-13T10:02:28.690Z,125888
2017-09-13T10:03:29.393Z,123968
2017-09-13T10:04:30.059Z,119168
2017-09-13T10:05:30.976Z,121312
2017-09-13T10:06:31.644Z,124896
2017-09-13T10:07:32.311Z,89216
2017-09-13T10:08:32.977Z,78272
2017-09-13T10:09:33.646Z,58656
2017-09-13T10:10:34.614Z,83776
2017-09-13T10:11:35.284Z,114016
2017-09-13T10:12:35.986Z,90848
2017-09-13T10:13:36.654Z,111872
2017-09-13T10:14:37.359Z,119872
2017-09-13T10:15:38.242Z,92608
2017-09-13T10:16:38.911Z,133600
2017-09-13T10:17:39.580Z,128640
2017-09-13T10:18:40.251Z,64704
2017-09-13T10:19:40.921Z,57728
2017-09-13T10:20:41.841Z,126848
2017-09-13T10:21:42.510Z,122272
2017-09-13T10:22:43.187Z,121568
2017-09-13T10:23:43.851Z,113120
2017-09-13T10:24:44.522Z,74976
2017-09-13T10:25:45.492Z,127488
2017-09-13T10:26:46.160Z,101024
2017-09-13T10:27:46.832Z,114912
2017-09-13T10:28:47.504Z,49056
2017-09-13T10:29:48.175Z,119616
2017-09-13T10:30:49.097Z,128128
2017-09-13T10:31:49.803Z,38080
2017-09-13T10:32:50.473Z,92512
2017-09-13T10:33:51.140Z,44448
2017-09-13T10:34:51.810Z,125760
2017-09-13T10:35:52.732Z,121536
2017-09-13T10:36:53.404Z,95264
2017-09-13T10:37:54.076Z,127776
2017-09-13T10:38:54.745Z,46336
2017-09-13T10:39:55.411Z,31744
2017-09-13T10:40:56.382Z,124000
2017-09-13T10:41:57.052Z,90656
2017-09-13T10:42:57.722Z,135424
2017-09-13T10:43:58.391Z,110784
2017-09-13T10:44:59.061Z,116608
2017-09-13T10:45:59.983Z,118592
2017-09-13T10:47:00.652Z,117920
2017-09-13T10:48:01.323Z,122656
2017-09-13T10:49:01.994Z,125472
2017-09-13T10:50:02.664Z,128992
2017-09-13T10:51:03.635Z,133408
2017-09-13T10:52:04.308Z,132032
2017-09-13T10:53:05.010Z,59136
2017-09-13T10:54:05.681Z,130400
2017-09-13T10:55:06.349Z,41152
2017-09-13T10:56:07.279Z,127584
2017-09-13T10:57:07.951Z,121856
2017-09-13T10:58:08.622Z,117504
2017-09-13T10:59:09.292Z,110976
2017-09-13T11:00:09.962Z,107616
2017-09-13T11:01:10.971Z,111072
2017-09-13T11:02:11.647Z,115136
2017-09-13T11:03:12.313Z,105536
2017-09-13T11:04:12.982Z,34400
2017-09-13T11:05:13.650Z,23456
2017-09-13T11:06:14.571Z,115552
2017-09-13T11:07:15.239Z,15012
2017-09-13T11:08:15.909Z,21056
2017-09-13T11:09:16.577Z,49024
2017-09-13T11:10:17.247Z,14708
2017-09-13T11:11:18.164Z,12648
2017-09-13T11:12:18.835Z,11448
2017-09-13T11:13:19.506Z,10980
2017-09-13T11:14:20.204Z,14164
2017-09-13T11:15:20.874Z,14640
2017-09-13T11:16:21.789Z,19360
2017-09-13T11:17:22.458Z,68224
2017-09-13T11:18:23.160Z,15536
2017-09-13T11:19:23.834Z,15932
2017-09-13T11:20:24.496Z,12148
2017-09-13T11:21:25.410Z,12896
2017-09-13T11:22:26.082Z,32960
2017-09-13T11:23:26.747Z,19872
2017-09-13T11:24:27.413Z,16124
2017-09-13T11:25:28.078Z,41184
2017-09-13T11:26:29.043Z,29088
2017-09-13T11:27:29.709Z,20992
2017-09-13T11:28:30.376Z,24832
2017-09-13T11:29:31.076Z,78688
2017-09-13T11:30:31.742Z,35072
2017-09-13T11:31:32.658Z,32864
2017-09-13T11:32:33.326Z,18208
2017-09-13T11:33:33.987Z,20960
2017-09-13T11:34:34.653Z,24864
2017-09-13T11:35:35.320Z,20512
2017-09-13T11:36:36.233Z,26048
2017-09-13T11:37:36.899Z,45760
2017-09-13T11:38:37.564Z,19264
2017-09-13T11:39:38.228Z,13840
2017-09-13T11:40:38.892Z,16156
2017-09-13T11:41:39.807Z,39200
2017-09-13T11:42:40.481Z,25664
2017-09-13T11:43:41.137Z,33632
2017-09-13T11:44:41.804Z,76736
2017-09-13T11:45:42.467Z,54976
2017-09-13T11:46:43.432Z,77792
2017-09-13T11:47:44.097Z,83072
2017-09-13T11:48:44.764Z,10380
2017-09-13T11:49:45.428Z,8868
2017-09-13T11:50:46.091Z,8872
2017-09-13T11:51:47.006Z,6196
2017-09-13T11:52:47.669Z,5104
2017-09-13T11:53:48.331Z,4360
2017-09-13T11:54:48.996Z,6636
2017-09-13T11:55:49.661Z,13348
2017-09-13T11:56:50.627Z,25888
2017-09-13T11:57:51.292Z,58784
2017-09-13T11:58:51.960Z,140480
2017-09-13T11:59:52.640Z,138400
2017-09-13T12:00:53.293Z,18432
2017-09-13T12:01:54.205Z,7540
2017-09-13T12:02:54.874Z,6076
2017-09-13T12:03:55.574Z,7380
2017-09-13T12:04:56.238Z,9472
2017-09-13T12:05:56.941Z,11744
2017-09-13T12:06:57.855Z,17856
2017-09-13T12:07:58.523Z,32704
2017-09-13T12:08:59.187Z,35488
2017-09-13T12:09:59.852Z,32416
2017-09-13T12:11:00.517Z,32960
2017-09-13T12:12:01.432Z,38464
2017-09-13T12:13:02.104Z,25120
2017-09-13T12:14:02.766Z,19456
2017-09-13T12:15:03.432Z,15120
2017-09-13T12:16:04.095Z,11180
2017-09-13T12:17:05.007Z,8052
2017-09-13T12:18:05.672Z,8180
2017-09-13T12:19:06.336Z,9872
2017-09-13T12:20:06.998Z,11644
2017-09-13T12:21:07.661Z,15108
2017-09-13T12:22:08.575Z,17028
2017-09-13T12:23:09.238Z,27680
2017-09-13T12:24:09.936Z,65344
2017-09-13T12:25:10.600Z,112768
2017-09-13T12:26:11.265Z,96416
2017-09-13T12:27:12.177Z,69920
2017-09-13T12:28:12.842Z,108608
2017-09-13T12:29:13.508Z,75360
2017-09-13T12:30:14.175Z,95936
2017-09-13T12:31:14.838Z,96704
2017-09-13T12:32:15.754Z,94272
2017-09-13T12:33:16.421Z,107680
2017-09-13T12:34:17.089Z,104992
2017-09-13T12:35:17.758Z,104480
2017-09-13T12:36:18.423Z,110016
2017-09-13T12:37:19.341Z,56416
2017-09-13T12:38:20.011Z,100960
2017-09-13T12:39:20.678Z,93696
2017-09-13T12:40:21.345Z,37440
2017-09-13T12:41:22.018Z,101056
2017-09-13T12:42:22.936Z,28128
2017-09-13T12:43:23.604Z,59776
2017-09-13T12:44:24.275Z,103296
2017-09-13T12:45:24.944Z,64768
2017-09-13T12:46:25.613Z,37920
2017-09-13T12:47:26.530Z,94624
2017-09-13T12:48:27.201Z,96864
2017-09-13T12:49:27.868Z,35104
2017-09-13T12:50:28.535Z,86656
2017-09-13T12:51:29.204Z,80416
2017-09-13T12:52:30.125Z,108800
2017-09-13T12:53:30.794Z,87232
2017-09-13T12:54:31.460Z,35936
2017-09-13T12:55:32.130Z,73312
2017-09-13T12:56:32.802Z,64160
2017-09-13T12:57:33.718Z,69600
2017-09-13T12:58:34.388Z,80224
2017-09-13T12:59:35.060Z,71168
2017-09-13T13:00:35.729Z,71264
2017-09-13T13:01:36.398Z,60032
2017-09-13T13:02:37.352Z,63040
2017-09-13T13:03:38.021Z,61696
2017-09-13T13:04:38.689Z,52032
2017-09-13T13:05:39.364Z,40384
2017-09-13T13:06:40.027Z,39680
2017-09-13T13:07:41.002Z,56128
2017-09-13T13:08:41.676Z,83168
2017-09-13T13:09:42.339Z,47264
2017-09-13T13:10:43.005Z,51584
2017-09-13T13:11:43.676Z,65696
2017-09-13T13:12:44.593Z,55488
2017-09-13T13:13:45.267Z,58112
2017-09-13T13:14:45.969Z,82528
2017-09-13T13:15:46.636Z,66688
2017-09-13T13:16:47.303Z,55904
2017-09-13T13:17:48.222Z,77920
2017-09-13T13:18:48.890Z,58336
2017-09-13T13:19:49.557Z,62048
2017-09-13T13:20:50.224Z,67552
2017-09-13T13:21:50.894Z,58368
2017-09-13T13:22:51.812Z,68928
2017-09-13T13:23:52.481Z,55840
2017-09-13T13:24:53.149Z,52448
2017-09-13T13:25:53.818Z,49056
2017-09-13T13:26:54.486Z,66720
2017-09-13T13:27:55.422Z,60512
2017-09-13T13:28:56.094Z,67776
2017-09-13T13:29:56.758Z,58400
2017-09-13T13:30:57.425Z,65952
2017-09-13T13:31:58.096Z,63456
2017-09-13T13:32:59.015Z,37888
2017-09-13T13:33:59.683Z,44256
2017-09-13T13:35:00.352Z,20288
2017-09-13T13:36:01.019Z,15696
2017-09-13T13:37:01.688Z,10916
2017-09-13T13:38:02.606Z,8720
2017-09-13T13:39:03.274Z,9608
2017-09-13T13:40:03.940Z,13528
2017-09-13T13:41:04.609Z,10640
2017-09-13T13:42:05.280Z,9652
2017-09-13T13:43:06.242Z,8064
2017-09-13T13:44:06.906Z,7280
2017-09-13T13:45:07.607Z,7924
2017-09-13T13:46:08.273Z,10492